createdAt,value
2018-12-30T00:00:22.031Z,101283.73
2018-12-30T00:02:53.769Z,101293.70
2018-12-30T00:05:25.325Z,101291.91
2018-12-30T00:07:56.609Z,101286.67
2018-12-30T00:10:27.852Z,101297.63
2018-12-30T00:12:59.163Z,101295.02
2018-12-30T00:15:30.673Z,101295.50
2018-12-30T00:18:01.860Z,101302.47
2018-12-30T00:20:33.041Z,101305.19
2018-12-30T00:23:04.297Z,101295.64
2018-12-30T00:25:35.741Z,101293.91
2018-12-30T00:28:06.925Z,101292.59
2018-12-30T00:30:38.141Z,101308.02
2018-12-30T00:33:09.410Z,101312.95
2018-12-30T00:35:40.596Z,101307.63
2018-12-30T00:38:11.790Z,101312.95
2018-12-30T00:40:43.094Z,101319.40
2018-12-30T00:43:14.319Z,101320.31
2018-12-30T00:45:45.562Z,101317.70
2018-12-30T00:48:16.778Z,101314.80
2018-12-30T00:50:48.018Z,101309.95
2018-12-30T00:53:19.274Z,101312.67
2018-12-30T00:55:50.479Z,101324.45
2018-12-30T00:58:21.739Z,101321.83
2018-12-30T01:00:53.285Z,101323.14
2018-12-30T01:03:25.578Z,101325.36
2018-12-30T01:05:56.740Z,101331.91
2018-12-30T01:08:27.962Z,101321.93
2018-12-30T01:10:59.132Z,101331.38
2018-12-30T01:13:30.327Z,101319.50
2018-12-30T01:16:01.516Z,101330.50
2018-12-30T01:18:32.696Z,101340.15
2018-12-30T01:21:04.065Z,101335.84
2018-12-30T01:23:35.347Z,101328.37
2018-12-30T01:26:06.513Z,101328.17
2018-12-30T01:28:37.752Z,101322.51
2018-12-30T01:31:08.965Z,101328.27
2018-12-30T01:33:40.136Z,101337.43
2018-12-30T01:36:12.228Z,101344.18
2018-12-30T01:38:43.435Z,101345.09
2018-12-30T01:41:14.654Z,101344.42
2018-12-30T01:43:45.878Z,101358.49
2018-12-30T01:46:17.071Z,101358.63
2018-12-30T01:48:48.261Z,101358.34
2018-12-30T01:51:19.483Z,101348.36
2018-12-30T01:53:50.639Z,101352.78
2018-12-30T01:56:21.792Z,101350.41
2018-12-30T01:58:52.962Z,101350.41
2018-12-30T02:01:24.210Z,101356.23
2018-12-30T02:03:55.608Z,101352.83
2018-12-30T02:06:27.509Z,101367.44
2018-12-30T02:09:01.820Z,101367.53
2018-12-30T02:11:39.993Z,101377.43
2018-12-30T02:14:11.201Z,101373.21
2018-12-30T02:16:42.398Z,101379.37
2018-12-30T02:19:13.798Z,101383.40
2018-12-30T02:21:45.297Z,101390.97
2018-12-30T02:24:16.580Z,101391.98
2018-12-30T02:26:47.807Z,101395.63
2018-12-30T02:29:19.408Z,101404.50
2018-12-30T02:31:50.665Z,101395.14
2018-12-30T02:34:21.818Z,101400.48
2018-12-30T02:36:53.044Z,101399.77
2018-12-30T02:39:24.356Z,101412.47
2018-12-30T02:41:55.615Z,101426.09
2018-12-30T02:44:26.898Z,101407.05
2018-12-30T02:46:58.134Z,101408.45
2018-12-30T02:49:29.514Z,101403.34
2018-12-30T02:52:00.717Z,101416.94
2018-12-30T02:54:31.969Z,101411.41
2018-12-30T02:57:03.165Z,101422.28
2018-12-30T02:59:34.376Z,101418.35
2018-12-30T03:02:06.560Z,101429.75
2018-12-30T03:04:37.953Z,101438.00
2018-12-30T03:07:09.265Z,101435.80
2018-12-30T03:09:40.482Z,101432.66
2018-12-30T03:12:11.749Z,101455.32
2018-12-30T03:14:42.892Z,101448.28
2018-12-30T03:17:14.157Z,101448.28
2018-12-30T03:19:45.430Z,101460.06
2018-12-30T03:22:16.585Z,101469.03
2018-12-30T03:24:47.798Z,101488.44
2018-12-30T03:27:19.105Z,101493.47
2018-12-30T03:29:50.353Z,101478.62
2018-12-30T03:32:21.627Z,101488.16
2018-12-30T03:34:52.856Z,101498.17
2018-12-30T03:37:24.143Z,101511.13
2018-12-30T03:39:55.450Z,101511.77
2018-12-30T03:42:26.746Z,101526.38
2018-12-30T03:44:58.046Z,101539.33
2018-12-30T03:47:29.287Z,101541.61
2018-12-30T03:50:00.475Z,101554.52
2018-12-30T03:52:31.694Z,101557.36
2018-12-30T03:55:03.180Z,101558.89
2018-12-30T03:57:34.365Z,101581.63
2018-12-30T04:00:06.059Z,101581.80
2018-12-30T04:02:37.217Z,101572.70
2018-12-30T04:05:08.435Z,101567.80
2018-12-30T04:07:39.583Z,101565.63
2018-12-30T04:10:10.782Z,101580.94
2018-12-30T04:12:41.994Z,101594.28
2018-12-30T04:15:14.305Z,101588.70
2018-12-30T04:17:45.596Z,101592.41
2018-12-30T04:20:16.869Z,101631.88
2018-12-30T04:22:49.088Z,101598.45
2018-12-30T04:25:20.279Z,101623.16
2018-12-30T04:27:51.672Z,101613.89
2018-12-30T04:30:22.928Z,101610.25
2018-12-30T04:32:54.230Z,101629.69
2018-12-30T04:35:25.384Z,101630.50
2018-12-30T04:37:56.595Z,101638.61
2018-12-30T04:40:27.873Z,101654.05
2018-12-30T04:43:00.172Z,101654.05
2018-12-30T04:45:31.396Z,101655.48
2018-12-30T04:48:02.604Z,101666.05
2018-12-30T04:50:33.903Z,101669.58
2018-12-30T04:53:05.127Z,101669.70
2018-12-30T04:55:36.327Z,101690.72
2018-12-30T04:58:07.510Z,101690.33
2018-12-30T05:00:38.684Z,101697.37
2018-12-30T05:03:10.065Z,101706.78
2018-12-30T05:05:41.383Z,101722.97
2018-12-30T05:08:12.596Z,101723.50
2018-12-30T05:10:44.103Z,101741.53
2018-12-30T05:13:15.314Z,101741.53
2018-12-30T05:15:46.580Z,101741.77
2018-12-30T05:18:17.837Z,101754.72
2018-12-30T05:20:49.244Z,101750.11
2018-12-30T05:23:20.594Z,101752.45
2018-12-30T05:25:51.945Z,101774.41
2018-12-30T05:28:23.088Z,101772.72
2018-12-30T05:30:54.284Z,101782.37
2018-12-30T05:33:25.527Z,101807.86
2018-12-30T05:35:56.794Z,101796.21
2018-12-30T05:38:28.034Z,101797.52
2018-12-30T05:40:59.401Z,101811.90
2018-12-30T05:43:30.747Z,101811.63
2018-12-30T05:46:01.970Z,101819.98
2018-12-30T05:48:33.167Z,101812.94
2018-12-30T05:51:04.357Z,101830.44
2018-12-30T05:53:35.517Z,101836.85
2018-12-30T05:56:06.708Z,101845.62
2018-12-30T05:58:37.977Z,101843.39
2018-12-30T06:01:09.146Z,101854.11
2018-12-30T06:03:40.369Z,101855.30
2018-12-30T06:06:11.637Z,101867.87
2018-12-30T06:08:42.902Z,101882.13
2018-12-30T06:11:14.173Z,101884.08
2018-12-30T06:13:45.418Z,101888.14
2018-12-30T06:16:16.757Z,101903.58
2018-12-30T06:18:48.188Z,101906.45
2018-12-30T06:21:19.485Z,101921.86
2018-12-30T06:23:50.693Z,101920.81
2018-12-30T06:26:21.957Z,101917.03
2018-12-30T06:28:53.148Z,101931.66
2018-12-30T06:31:24.314Z,101947.22
2018-12-30T06:33:55.805Z,101935.84
2018-12-30T06:36:26.975Z,101945.78
2018-12-30T06:38:58.195Z,101937.58
2018-12-30T06:41:29.339Z,101949.84
2018-12-30T06:44:00.600Z,101950.22
2018-12-30T06:46:31.819Z,101962.78
2018-12-30T06:49:03.006Z,101963.42
2018-12-30T06:51:34.257Z,101985.63
2018-12-30T06:54:05.441Z,101978.17
2018-12-30T06:56:36.686Z,101975.98
2018-12-30T06:59:07.876Z,101975.05
2018-12-30T07:01:39.102Z,101977.79
2018-12-30T07:04:10.332Z,101983.94
2018-12-30T07:06:41.596Z,101981.71
2018-12-30T07:09:12.782Z,101998.69
2018-12-30T07:11:44.002Z,101987.86
2018-12-30T07:14:15.246Z,102004.84
2018-12-30T07:16:46.603Z,102009.69
2018-12-30T07:19:17.820Z,102003.54
2018-12-30T07:21:49.191Z,102004.05
2018-12-30T07:24:20.354Z,102007.70
2018-12-30T07:26:51.737Z,102011.75
2018-12-30T07:29:23.142Z,102011.91
2018-12-30T07:31:54.429Z,102017.27
2018-12-30T07:34:25.813Z,102018.95
2018-12-30T07:36:57.239Z,102034.76
2018-12-30T07:39:28.674Z,102042.47
2018-12-30T07:42:00.319Z,102038.68
2018-12-30T07:44:31.825Z,102042.09
2018-12-30T07:47:03.207Z,102044.45
2018-12-30T07:49:34.705Z,102057.52
2018-12-30T07:52:06.334Z,102059.08
2018-12-30T07:54:37.552Z,102047.98
2018-12-30T07:57:09.301Z,102070.06
2018-12-30T07:59:40.842Z,102066.40
2018-12-30T08:02:12.227Z,102062.73
2018-12-30T08:04:43.592Z,102062.22
2018-12-30T08:07:15.006Z,102065.50
2018-12-30T08:09:46.329Z,102063.13
2018-12-30T08:12:18.736Z,102066.67
2018-12-30T08:14:50.093Z,102063.92
2018-12-30T08:17:21.344Z,102077.13
2018-12-30T08:19:52.577Z,102071.64
2018-12-30T08:22:23.808Z,102081.04
2018-12-30T08:24:55.007Z,102083.94
2018-12-30T08:27:26.218Z,102073.22
2018-12-30T08:29:57.467Z,102080.93
2018-12-30T08:32:28.651Z,102092.82
2018-12-30T08:35:00.231Z,102086.03
2018-12-30T08:37:31.449Z,102092.30
2018-12-30T08:40:02.668Z,102089.02
2018-12-30T08:42:34.357Z,102085.38
2018-12-30T08:45:05.707Z,102105.63
2018-12-30T08:47:36.925Z,102098.06
2018-12-30T08:50:08.151Z,102097.00
2018-12-30T08:52:39.423Z,102093.32
2018-12-30T08:55:10.573Z,102105.22
2018-12-30T08:57:41.810Z,102095.41
2018-12-30T09:00:13.137Z,102118.83
2018-12-30T09:02:44.509Z,102122.11
2018-12-30T09:05:15.805Z,102117.80
2018-12-30T09:07:47.007Z,102114.50
2018-12-30T09:10:22.426Z,102130.06
2018-12-30T09:12:53.754Z,102134.11
2018-12-30T09:15:25.128Z,102126.55
2018-12-30T09:17:56.446Z,102134.64
2018-12-30T09:20:27.696Z,102142.62
2018-12-30T09:22:59.016Z,102151.13
2018-12-30T09:25:30.201Z,102135.55
2018-12-30T09:28:01.468Z,102147.45
2018-12-30T09:30:32.618Z,102135.41
2018-12-30T09:33:03.843Z,102158.75
2018-12-30T09:35:35.053Z,102145.66
2018-12-30T09:38:06.267Z,102137.93
2018-12-30T09:40:37.604Z,102137.93
2018-12-30T09:43:08.983Z,102146.44
2018-12-30T09:45:40.319Z,102140.41
2018-12-30T09:48:11.464Z,102151.92
2018-12-30T09:50:42.678Z,102160.95
2018-12-30T09:53:13.924Z,102158.07
2018-12-30T09:55:45.178Z,102170.09
2018-12-30T09:58:16.620Z,102159.78
2018-12-30T10:00:48.012Z,102152.97
2018-12-30T10:03:19.638Z,102158.83
2018-12-30T10:05:50.971Z,102172.31
2018-12-30T10:08:22.307Z,102172.31
2018-12-30T10:10:53.733Z,102162.64
2018-12-30T10:13:25.112Z,102166.95
2018-12-30T10:15:56.382Z,102166.56
2018-12-30T10:18:27.761Z,102169.98
2018-12-30T10:20:59.383Z,102163.44
2018-12-30T10:23:30.706Z,102161.33
2018-12-30T10:26:02.058Z,102157.02
2018-12-30T10:28:34.697Z,102161.45
2018-12-30T10:31:07.051Z,102166.42
2018-12-30T10:33:38.670Z,102167.47
2018-12-30T10:36:10.097Z,102149.27
2018-12-30T10:38:41.539Z,102151.62
2018-12-30T10:41:12.937Z,102148.47
2018-12-30T10:43:44.328Z,102155.02
2018-12-30T10:46:15.577Z,102144.78
2018-12-30T10:48:46.899Z,102154.99
2018-12-30T10:51:18.284Z,102163.78
2018-12-30T10:53:49.484Z,102164.82
2018-12-30T10:56:20.719Z,102155.77
2018-12-30T10:58:51.976Z,102153.01
2018-12-30T11:01:23.269Z,102158.91
2018-12-30T11:03:54.476Z,102157.96
2018-12-30T11:06:25.737Z,102145.52
2018-12-30T11:08:56.985Z,102151.00
2018-12-30T11:11:28.161Z,102156.47
2018-12-30T11:13:59.357Z,102153.08
2018-12-30T11:16:30.688Z,102149.66
2018-12-30T11:19:02.024Z,102157.52
2018-12-30T11:21:33.345Z,102162.25
2018-12-30T11:24:08.593Z,102160.41
2018-12-30T11:26:37.677Z,102162.76
2018-12-30T11:29:08.880Z,102152.28
2018-12-30T11:31:40.139Z,102159.63
2018-12-30T11:34:11.311Z,102152.97
2018-12-30T11:36:42.669Z,102154.16
2018-12-30T11:39:13.806Z,102150.84
2018-12-30T11:41:44.988Z,102152.81
2018-12-30T11:44:16.175Z,102149.93
2018-12-30T11:46:47.311Z,102154.91
2018-12-30T11:49:18.532Z,102148.47
2018-12-30T11:51:49.712Z,102156.95
2018-12-30T11:54:20.961Z,102157.49
2018-12-30T11:56:52.203Z,102156.19
2018-12-30T11:59:23.609Z,102155.91
2018-12-30T12:01:55.057Z,102163.78
2018-12-30T12:04:26.216Z,102169.25
2018-12-30T12:06:57.448Z,102175.92
2018-12-30T12:09:29.602Z,102171.61
2018-12-30T12:12:00.914Z,102168.72
2018-12-30T12:14:32.330Z,102173.16
2018-12-30T12:17:03.905Z,102168.45
2018-12-30T12:19:35.293Z,102173.01
2018-12-30T12:22:06.597Z,102172.63
2018-12-30T12:24:37.764Z,102174.05
2018-12-30T12:27:09.141Z,102183.65
2018-12-30T12:29:40.500Z,102177.48
2018-12-30T12:32:11.773Z,102181.80
2018-12-30T12:34:43.347Z,102180.61
2018-12-30T12:37:14.706Z,102192.28
2018-12-30T12:39:45.916Z,102187.04
2018-12-30T12:42:17.381Z,102191.51
2018-12-30T12:44:48.681Z,102180.22
2018-12-30T12:47:19.998Z,102182.57
2018-12-30T12:49:51.183Z,102184.00
2018-12-30T12:52:22.375Z,102180.19
2018-12-30T12:54:53.864Z,102182.03
2018-12-30T12:57:25.211Z,102177.68
2018-12-30T12:59:56.567Z,102175.21
2018-12-30T13:02:27.748Z,102192.64
2018-12-30T13:04:58.886Z,102175.59
2018-12-30T13:07:31.101Z,102164.45
2018-12-30T13:10:02.287Z,102187.16
2018-12-30T13:12:33.572Z,102186.73
2018-12-30T13:15:05.420Z,102190.55
2018-12-30T13:17:36.763Z,102199.85
2018-12-30T13:20:08.076Z,102188.32
2018-12-30T13:22:39.719Z,102198.66
2018-12-30T13:25:11.149Z,102197.97
2018-12-30T13:27:42.477Z,102200.20
2018-12-30T13:30:15.974Z,102198.39
2018-12-30T13:32:48.537Z,102203.21
2018-12-30T13:35:19.809Z,102192.99
2018-12-30T13:37:51.447Z,102194.84
2018-12-30T13:40:24.594Z,102204.02
2018-12-30T13:42:56.053Z,102203.48
2018-12-30T13:45:27.832Z,102197.85
2018-12-30T13:47:59.098Z,102200.86
2018-12-30T13:50:30.386Z,102205.09
2018-12-30T13:53:01.695Z,102207.72
2018-12-30T13:55:32.893Z,102218.86
2018-12-30T13:58:04.135Z,102207.72
2018-12-30T14:00:35.345Z,102217.16
2018-12-30T14:03:06.627Z,102216.11
2018-12-30T14:05:38.011Z,102221.66
2018-12-30T14:08:09.339Z,102214.45
2018-12-30T14:11:01.207Z,102218.50
2018-12-30T14:13:32.458Z,102215.76
2018-12-30T14:16:03.702Z,102208.55
2018-12-30T14:18:35.092Z,102222.07
2018-12-30T14:21:06.493Z,102221.41
2018-12-30T14:23:37.773Z,102228.23
2018-12-30T14:26:09.205Z,102231.66
2018-12-30T14:28:40.533Z,102236.90
2018-12-30T14:31:11.765Z,102236.75
2018-12-30T14:33:43.269Z,102241.98
2018-12-30T14:36:14.489Z,102229.57
2018-12-30T14:38:45.963Z,102242.41
2018-12-30T14:41:17.193Z,102234.93
2018-12-30T14:43:48.521Z,102232.70
2018-12-30T14:46:19.959Z,102225.63
2018-12-30T14:48:51.369Z,102235.31
2018-12-30T14:51:22.688Z,102243.59
2018-12-30T14:53:53.897Z,102235.07
2018-12-30T14:56:25.118Z,102245.17
2018-12-30T14:58:56.427Z,102240.20
2018-12-30T15:01:27.705Z,102237.95
2018-12-30T15:03:59.054Z,102263.92
2018-12-30T15:06:31.459Z,102235.36
2018-12-30T15:09:02.992Z,102235.09
2018-12-30T15:11:34.256Z,102226.33
2018-12-30T15:14:05.624Z,102237.58
2018-12-30T15:16:36.905Z,102232.77
2018-12-30T15:19:08.217Z,102240.89
2018-12-30T15:21:39.467Z,102231.98
2018-12-30T15:24:10.730Z,102226.62
2018-12-30T15:26:41.996Z,102225.16
2018-12-30T15:29:13.387Z,102237.36
2018-12-30T15:31:44.773Z,102259.09
2018-12-30T15:34:16.232Z,102267.34
2018-12-30T15:36:47.679Z,102270.76
2018-12-30T15:39:18.933Z,102266.33
2018-12-30T15:41:50.268Z,102277.57
2018-12-30T15:44:21.541Z,102277.33
2018-12-30T15:46:52.818Z,102278.64
2018-12-30T15:49:24.145Z,102276.27
2018-12-30T15:51:55.391Z,102281.52
2018-12-30T15:54:26.629Z,102295.38
2018-12-30T15:56:58.165Z,102302.73
2018-12-30T15:59:29.604Z,102298.30
2018-12-30T16:02:01.150Z,102304.42
2018-12-30T16:04:32.538Z,102296.06
2018-12-30T16:07:03.929Z,102298.55
2018-12-30T16:09:35.393Z,102297.63
2018-12-30T16:12:06.853Z,102304.68
2018-12-30T16:14:38.408Z,102296.31
2018-12-30T16:17:09.770Z,102291.46
2018-12-30T16:19:41.263Z,102298.94
2018-12-30T16:22:12.740Z,102285.72
2018-12-30T16:24:44.095Z,102302.74
2018-12-30T16:27:15.345Z,102293.45
2018-12-30T16:29:46.546Z,102314.91
2018-12-30T16:32:17.829Z,102301.15
2018-12-30T16:34:49.046Z,102314.92
2018-12-30T16:37:20.444Z,102316.11
2018-12-30T16:39:51.641Z,102317.25
2018-12-30T16:42:22.930Z,102317.13
2018-12-30T16:44:54.141Z,102334.95
2018-12-30T16:47:25.398Z,102343.19
2018-12-30T16:49:56.683Z,102344.89
2018-12-30T16:52:28.185Z,102344.12
2018-12-30T16:54:59.712Z,102357.59
2018-12-30T16:57:31.192Z,102359.29
2018-12-30T17:00:02.803Z,102362.71
2018-12-30T17:02:34.214Z,102361.02
2018-12-30T17:05:06.404Z,102364.53
2018-12-30T17:07:37.779Z,102354.05
2018-12-30T17:10:10.123Z,102365.20
2018-12-30T17:12:41.587Z,102368.74
2018-12-30T17:15:12.949Z,102374.88
2018-12-30T17:17:44.369Z,102375.92
2018-12-30T17:20:15.795Z,102364.30
2018-12-30T17:22:47.132Z,102363.62
2018-12-30T17:25:18.586Z,102365.48
2018-12-30T17:27:50.032Z,102378.03
2018-12-30T17:30:21.455Z,102373.72
2018-12-30T17:32:52.697Z,102376.34
2018-12-30T17:35:23.978Z,102371.10
2018-12-30T17:37:55.294Z,102372.80
2018-12-30T17:40:26.730Z,102379.34
2018-12-30T17:42:58.119Z,102388.89
2018-12-30T17:45:29.514Z,102402.41
2018-12-30T17:48:00.953Z,102389.69
2018-12-30T17:50:32.429Z,102406.97
2018-12-30T17:53:03.912Z,102413.91
2018-12-30T17:55:35.234Z,102417.70
2018-12-30T17:58:06.665Z,102417.70
2018-12-30T18:00:38.141Z,102416.94
2018-12-30T18:03:09.491Z,102424.25
2018-12-30T18:05:40.843Z,102421.77
2018-12-30T18:08:12.321Z,102427.92
2018-12-30T18:10:43.732Z,102424.80
2018-12-30T18:13:15.428Z,102426.62
2018-12-30T18:15:46.683Z,102426.74
2018-12-30T18:18:18.150Z,102431.47
2018-12-30T18:20:49.685Z,102431.60
2018-12-30T18:23:21.123Z,102434.34
2018-12-30T18:25:58.626Z,102436.84
2018-12-30T18:28:25.728Z,102435.53
2018-12-30T18:30:57.132Z,102426.74
2018-12-30T18:33:28.413Z,102421.92
2018-12-30T18:35:59.716Z,102425.98
2018-12-30T18:38:31.019Z,102425.56
2018-12-30T18:41:03.342Z,102429.91
2018-12-30T18:43:34.692Z,102431.98
2018-12-30T18:46:06.068Z,102446.39
2018-12-30T18:48:37.399Z,102445.88
2018-12-30T18:51:08.858Z,102442.59
2018-12-30T18:53:40.176Z,102455.68
2018-12-30T18:56:11.415Z,102455.55
2018-12-30T18:58:42.932Z,102453.86
2018-12-30T19:01:15.640Z,102461.59
2018-12-30T19:03:46.946Z,102461.72
2018-12-30T19:06:18.215Z,102467.97
2018-12-30T19:08:49.399Z,102467.47
2018-12-30T19:11:20.681Z,102467.47
2018-12-30T19:13:51.909Z,102459.35
2018-12-30T19:16:23.165Z,102456.73
2018-12-30T19:18:54.357Z,102453.19
2018-12-30T19:21:25.642Z,102461.59
2018-12-30T19:23:56.923Z,102463.28
2018-12-30T19:26:28.099Z,102465.77
2018-12-30T19:28:59.391Z,102461.17
2018-12-30T19:31:30.666Z,102471.64
2018-12-30T19:34:01.934Z,102465.34
2018-12-30T19:36:33.243Z,102465.22
2018-12-30T19:39:05.920Z,102472.15
2018-12-30T19:41:37.205Z,102470.84
2018-12-30T19:44:08.476Z,102467.71
2018-12-30T19:46:39.760Z,102470.33
2018-12-30T19:49:11.061Z,102468.34
2018-12-30T19:51:42.376Z,102466.11
2018-12-30T19:54:13.599Z,102469.02
2018-12-30T19:56:44.842Z,102477.63
2018-12-30T19:59:16.117Z,102482.36
2018-12-30T20:01:47.377Z,102483.12
2018-12-30T20:04:18.722Z,102486.91
2018-12-30T20:06:50.131Z,102488.86
2018-12-30T20:09:21.435Z,102482.18
2018-12-30T20:11:52.749Z,102488.22
2018-12-30T20:14:24.037Z,102488.59
2018-12-30T20:16:56.398Z,102493.03
2018-12-30T20:19:27.629Z,102493.58
2018-12-30T20:21:58.836Z,102493.58
2018-12-30T20:24:29.997Z,102487.03
2018-12-30T20:27:01.156Z,102484.80
2018-12-30T20:29:32.332Z,102487.55
2018-12-30T20:32:03.615Z,102487.16
2018-12-30T20:34:34.820Z,102490.16
2018-12-30T20:37:06.020Z,102490.95
2018-12-30T20:39:37.319Z,102488.22
2018-12-30T20:42:08.478Z,102488.59
2018-12-30T20:44:39.693Z,102488.08
2018-12-30T20:47:10.911Z,102493.95
2018-12-30T20:49:42.190Z,102489.66
2018-12-30T20:52:13.585Z,102474.33
2018-12-30T20:54:44.817Z,102468.70
2018-12-30T20:57:16.112Z,102457.98
2018-12-30T20:59:47.260Z,102459.80
2018-12-30T21:02:18.484Z,102455.88
2018-12-30T21:04:49.646Z,102448.95
2018-12-30T21:07:20.894Z,102447.26
2018-12-30T21:09:52.168Z,102456.80
2018-12-30T21:12:23.374Z,102456.80
2018-12-30T21:14:54.670Z,102457.98
2018-12-30T21:17:25.983Z,102462.30
2018-12-30T21:19:57.193Z,102465.70
2018-12-30T21:22:28.396Z,102471.70
2018-12-30T21:24:59.655Z,102474.70
2018-12-30T21:27:30.905Z,102464.65
2018-12-30T21:30:02.190Z,102461.78
2018-12-30T21:32:33.462Z,102463.72
2018-12-30T21:35:04.819Z,102471.95
2018-12-30T21:37:36.079Z,102473.69
2018-12-30T21:40:07.827Z,102481.34
2018-12-30T21:42:43.691Z,102486.44
2018-12-30T21:45:12.221Z,102484.62
2018-12-30T21:47:43.475Z,102489.05
2018-12-30T21:50:14.642Z,102485.67
2018-12-30T21:52:45.848Z,102488.98
2018-12-30T21:55:17.063Z,102493.83
2018-12-30T21:57:48.281Z,102496.45
2018-12-30T22:00:19.682Z,102500.63
2018-12-30T22:02:50.878Z,102500.63
2018-12-30T22:05:22.058Z,102509.42
2018-12-30T22:07:53.315Z,102505.11
2018-12-30T22:10:24.589Z,102499.49
2018-12-30T22:12:55.777Z,102505.63
2018-12-30T22:15:26.995Z,102501.31
2018-12-30T22:17:58.207Z,102501.19
2018-12-30T22:20:29.480Z,102492.78
2018-12-30T22:23:00.775Z,102480.23
2018-12-30T22:25:32.056Z,102482.86
2018-12-30T22:28:03.362Z,102487.30
2018-12-30T22:30:34.623Z,102498.31
2018-12-30T22:33:05.817Z,102501.83
2018-12-30T22:35:37.131Z,102512.47
2018-12-30T22:38:08.327Z,102513.36
2018-12-30T22:40:39.499Z,102514.42
2018-12-30T22:43:14.774Z,102522.41
2018-12-30T22:45:46.134Z,102520.84
2018-12-30T22:48:17.367Z,102522.45
2018-12-30T22:50:48.564Z,102526.26
2018-12-30T22:53:19.932Z,102528.20
2018-12-30T22:55:51.169Z,102518.28
2018-12-30T22:58:22.445Z,102519.59
2018-12-30T23:01:00.409Z,102517.73
2018-12-30T23:03:31.851Z,102521.28
2018-12-30T23:06:03.142Z,102526.14
2018-12-30T23:08:34.587Z,102520.10
2018-12-30T23:11:05.785Z,102527.58
2018-12-30T23:13:36.991Z,102518.67
2018-12-30T23:16:08.227Z,102524.08
2018-12-30T23:18:40.332Z,102527.20
2018-12-30T23:21:11.519Z,102525.09
2018-12-30T23:23:42.766Z,102528.27
2018-12-30T23:26:13.954Z,102536.12
2018-12-30T23:28:45.254Z,102538.20
2018-12-30T23:31:16.547Z,102518.97
2018-12-30T23:33:47.679Z,102502.70
2018-12-30T23:36:19.006Z,102501.27
2018-12-30T23:38:50.227Z,102496.66
2018-12-30T23:41:21.464Z,102495.22
2018-12-30T23:43:52.607Z,102498.09
2018-12-30T23:46:23.897Z,102487.87
2018-12-30T23:48:55.118Z,102492.59
2018-12-30T23:51:26.271Z,102490.77
2018-12-30T23:53:57.513Z,102505.02
2018-12-30T23:56:28.699Z,102504.50
2018-12-30T23:58:59.994Z,102503.58
